Terminal Aerodrome Forecast
Issued by NWS Wakefield, VA

Home | Current Version | Previous Version | Text Only | Print | Product List | Glossary On
Versions: 1 2 3 4 5 6 7 8 9 10 11 12 13 14 15 16 17 18
000
FTUS41 KAKQ 220200 AAB
TAFSBY
TAF AMD
KSBY 220244Z 2203/2224 32009KT P6SM -RA BKN050 OVC080
      TEMPO 2203/2205 BKN025 OVC040
     FM220500 32010KT P6SM SCT020 BKN050
     FM220900 33008KT 5SM -RA BR BKN015 OVC040
     FM221100 34012KT 2SM -RA BR OVC008
     FM221900 35015G25KT 5SM -RA BR BKN015 OVC040=

USA.gov is the U.S. government's official web portal to all federal, state and local government web resources and services.